createdAt,value
2022-10-21T00:04:14.185Z,131.63
2022-10-21T00:09:15.050Z,106.30
2022-10-21T00:14:15.873Z,28.12
2022-10-21T00:19:16.680Z,32.40
2022-10-21T00:24:17.756Z,152.32
2022-10-21T00:29:18.632Z,32.97
2022-10-21T00:34:20.599Z,44.85
2022-10-21T00:39:21.352Z,182.48
2022-10-21T00:44:22.153Z,697.40
2022-10-21T00:49:39.852Z,282.67
2022-10-21T00:54:42.843Z,485.27
2022-10-21T00:59:49.542Z,134.20
2022-10-21T01:04:53.365Z,74.97
2022-10-21T01:09:54.134Z,201.25
2022-10-21T01:14:59.424Z,81.37
2022-10-21T01:20:22.654Z,50.63
2022-10-21T01:30:48.917Z,84.68
2022-10-21T01:36:41.500Z,47.75
2022-10-21T01:41:53.907Z,109.75
2022-10-21T01:47:17.190Z,77.87
2022-10-21T01:52:18.212Z,49.40
2022-10-21T01:57:21.944Z,54.97
2022-10-21T02:02:29.009Z,56.25
2022-10-21T02:07:29.804Z,98.12
2022-10-21T02:12:33.162Z,109.20
2022-10-21T02:17:37.553Z,114.30
2022-10-21T02:22:41.653Z,286.80
2022-10-21T02:27:42.969Z,408.38
2022-10-21T02:32:55.779Z,234.18
2022-10-21T02:38:19.668Z,182.10
2022-10-21T02:43:31.580Z,216.88
2022-10-21T02:48:33.789Z,292.62
2022-10-21T02:53:35.288Z,165.20
2022-10-21T02:58:37.711Z,64.87
2022-10-21T03:03:38.456Z,77.20
2022-10-21T03:08:39.384Z,66.78
2022-10-21T03:13:40.206Z,47.80
2022-10-21T03:18:40.969Z,50.10
2022-10-21T03:23:41.699Z,44.75
2022-10-21T03:28:42.630Z,36.28
2022-10-21T03:33:43.378Z,45.00
2022-10-21T03:38:44.138Z,35.97
2022-10-21T03:43:45.035Z,36.05
2022-10-21T03:48:45.805Z,43.28
2022-10-21T03:53:46.535Z,46.40
2022-10-21T03:58:47.610Z,46.72
2022-10-21T04:03:48.407Z,39.13
2022-10-21T04:08:49.444Z,54.42
2022-10-21T04:13:50.292Z,48.60
2022-10-21T04:18:51.348Z,58.00
2022-10-21T04:23:52.111Z,50.30
2022-10-21T04:28:52.967Z,47.22
2022-10-21T04:33:53.733Z,45.47
2022-10-21T04:38:54.577Z,50.58
2022-10-21T04:43:55.330Z,57.80
2022-10-21T04:48:56.093Z,59.13
2022-10-21T04:53:56.965Z,58.97
2022-10-21T04:58:58.043Z,58.97
2022-10-21T05:03:58.768Z,53.85
2022-10-21T05:08:59.644Z,49.20
2022-10-21T05:14:00.472Z,57.65
2022-10-21T05:19:01.284Z,45.78
2022-10-21T05:24:02.231Z,41.33
2022-10-21T05:29:03.154Z,34.42
2022-10-21T05:34:03.899Z,37.20
2022-10-21T05:39:07.957Z,31.60
2022-10-21T05:44:08.703Z,31.90
2022-10-21T05:49:09.754Z,34.03
2022-10-21T05:54:10.545Z,40.17
2022-10-21T05:59:11.518Z,36.13
2022-10-21T06:04:12.258Z,34.08
2022-10-21T06:09:13.187Z,35.25
2022-10-21T06:14:13.925Z,31.98
2022-10-21T06:19:14.883Z,28.67
2022-10-21T06:24:15.717Z,32.78
2022-10-21T06:29:17.564Z,34.50
2022-10-21T06:39:19.112Z,25.05
2022-10-21T06:44:19.864Z,34.42
2022-10-21T06:49:20.829Z,24.10
2022-10-21T06:54:21.572Z,22.02
2022-10-21T06:59:22.759Z,22.52
2022-10-21T07:04:23.496Z,18.15
2022-10-21T07:09:24.427Z,21.52
2022-10-21T07:14:25.756Z,15.52
2022-10-21T07:19:26.580Z,16.17
2022-10-21T07:24:27.407Z,16.42
2022-10-21T07:29:28.293Z,15.35
2022-10-21T07:34:29.041Z,13.77
2022-10-21T07:39:30.110Z,15.02
2022-10-21T07:44:30.841Z,17.33
2022-10-21T07:49:31.667Z,10.52
2022-10-21T07:54:32.431Z,14.65
2022-10-21T07:59:33.377Z,12.07
2022-10-21T08:04:34.146Z,18.85
2022-10-21T08:09:35.004Z,12.50
2022-10-21T08:14:35.745Z,11.85
2022-10-21T08:19:36.540Z,14.38
2022-10-21T08:24:39.973Z,7.10
2022-10-21T08:29:43.291Z,5.60
2022-10-21T08:34:44.267Z,9.35
2022-10-21T08:39:46.064Z,11.77
2022-10-21T08:44:56.094Z,12.40
2022-10-21T08:50:13.253Z,8.80
2022-10-21T08:55:23.555Z,8.80
2022-10-21T09:00:32.248Z,10.40
2022-10-21T09:06:13.272Z,9.40
2022-10-21T09:11:40.118Z,12.32
2022-10-21T09:17:20.542Z,6.22
2022-10-21T09:22:58.548Z,8.48
2022-10-21T09:28:08.706Z,4.28
2022-10-21T09:33:22.663Z,14.87
2022-10-21T09:38:29.235Z,14.98
2022-10-21T09:43:30.649Z,10.70
2022-10-21T09:48:55.051Z,11.10
2022-10-21T09:54:21.653Z,23.52
2022-10-21T09:59:26.965Z,8.35
2022-10-21T10:04:34.704Z,8.70
2022-10-21T10:09:38.302Z,10.32
2022-10-21T10:14:44.926Z,9.32
2022-10-21T10:20:14.303Z,7.57
2022-10-21T10:25:21.992Z,7.30
2022-10-21T10:30:26.390Z,11.48
2022-10-21T10:35:33.087Z,12.55
2022-10-21T10:40:41.357Z,11.70
2022-10-21T10:45:55.960Z,14.35
2022-10-21T10:50:57.557Z,10.77
2022-10-21T10:57:34.001Z,10.57
2022-10-21T11:03:04.706Z,11.48
2022-10-21T11:08:15.071Z,8.30
2022-10-21T11:13:21.353Z,8.77
2022-10-21T11:18:37.017Z,5.78
2022-10-21T11:24:04.427Z,6.95
2022-10-21T11:29:43.359Z,8.50
2022-10-21T11:37:32.143Z,4.62
2022-10-21T11:42:46.123Z,6.93
2022-10-21T11:48:06.216Z,6.45
2022-10-21T11:53:55.287Z,2.50
2022-10-21T11:59:22.999Z,4.03
2022-10-21T12:04:34.571Z,1.58
2022-10-21T12:09:49.437Z,2.92
2022-10-21T12:14:59.441Z,3.22
2022-10-21T12:20:03.781Z,4.15
2022-10-21T12:28:01.157Z,5.12
2022-10-21T12:33:38.167Z,4.55
2022-10-21T12:38:51.272Z,8.30
2022-10-21T12:44:47.374Z,3.65
2022-10-21T12:50:23.919Z,6.65
2022-10-21T12:55:27.346Z,4.97
2022-10-21T13:00:52.734Z,4.22
2022-10-21T13:06:01.400Z,2.90
2022-10-21T13:11:13.071Z,2.83
2022-10-21T13:16:47.241Z,4.65
2022-10-21T13:21:48.630Z,5.68
2022-10-21T13:26:53.529Z,4.18
2022-10-21T13:35:31.437Z,4.62
2022-10-21T13:40:44.330Z,7.60
2022-10-21T13:45:48.964Z,4.90
2022-10-21T13:50:52.265Z,3.60
2022-10-21T13:56:04.898Z,3.80
2022-10-21T14:01:19.402Z,6.93
2022-10-21T14:06:35.170Z,6.55
2022-10-21T14:11:45.238Z,4.93
2022-10-21T14:17:08.001Z,4.00
2022-10-21T14:22:18.401Z,5.55
2022-10-21T14:27:24.846Z,5.22
2022-10-21T14:32:26.777Z,5.30
2022-10-21T14:37:34.647Z,8.20
2022-10-21T14:42:35.435Z,5.50
2022-10-21T14:47:36.597Z,4.57
2022-10-21T14:52:42.346Z,7.70
2022-10-21T14:57:52.837Z,4.32
2022-10-21T15:02:55.437Z,8.13
2022-10-21T15:14:44.848Z,5.37
2022-10-21T15:19:51.937Z,8.18
2022-10-21T15:24:58.528Z,9.88
2022-10-21T15:30:12.980Z,9.10
2022-10-21T15:35:16.483Z,10.30
2022-10-21T15:40:18.775Z,9.77
2022-10-21T15:45:22.294Z,16.23
2022-10-21T15:50:25.803Z,11.73
2022-10-21T15:55:26.575Z,6.82
2022-10-21T16:00:27.715Z,6.93
2022-10-21T16:05:29.153Z,8.25
2022-10-21T16:10:40.981Z,11.18
2022-10-21T16:15:41.832Z,9.40
2022-10-21T16:20:43.161Z,15.02
2022-10-21T16:25:43.919Z,9.20
2022-10-21T16:30:44.765Z,16.05
2022-10-21T16:35:47.902Z,14.18
2022-10-21T16:40:48.664Z,10.45
2022-10-21T16:45:49.493Z,11.25
2022-10-21T16:50:50.364Z,10.15
2022-10-21T16:55:51.111Z,11.45
2022-10-21T17:00:52.094Z,10.38
2022-10-21T17:05:53.218Z,11.57
2022-10-21T17:10:53.982Z,10.73
2022-10-21T17:15:54.834Z,17.80
2022-10-21T17:20:55.841Z,10.05
2022-10-21T17:25:56.788Z,9.55
2022-10-21T17:30:57.660Z,10.35
2022-10-21T17:35:58.410Z,10.70
2022-10-21T17:40:59.182Z,12.93
2022-10-21T17:45:59.951Z,9.73
2022-10-21T17:51:01.574Z,15.20
2022-10-21T17:56:05.811Z,11.10
2022-10-21T18:01:08.849Z,14.02
2022-10-21T18:06:12.235Z,16.40
2022-10-21T18:11:15.615Z,15.77
2022-10-21T18:16:21.149Z,14.32
2022-10-21T18:21:22.761Z,14.27
2022-10-21T18:26:26.880Z,12.18
2022-10-21T18:31:30.377Z,15.40
2022-10-21T18:36:32.038Z,15.07
2022-10-21T18:41:33.349Z,14.38
2022-10-21T18:46:36.600Z,10.50
2022-10-21T18:51:37.493Z,12.05
2022-10-21T18:56:40.308Z,15.93
2022-10-21T19:01:41.177Z,9.88
2022-10-21T19:06:45.270Z,10.30
2022-10-21T19:11:46.819Z,13.25
2022-10-21T19:16:48.319Z,9.27
2022-10-21T19:21:49.117Z,10.65
2022-10-21T19:26:53.371Z,11.40
2022-10-21T19:31:55.783Z,5.82
2022-10-21T19:36:57.793Z,11.77
2022-10-21T19:41:58.904Z,9.48
2022-10-21T19:46:59.697Z,7.60
2022-10-21T19:52:00.488Z,9.43
2022-10-21T19:57:01.268Z,6.68
2022-10-21T20:02:02.206Z,10.18
2022-10-21T20:07:02.987Z,12.45
2022-10-21T20:12:03.748Z,14.27
2022-10-21T20:17:04.530Z,13.45
2022-10-21T20:22:05.993Z,13.18
2022-10-21T20:27:07.276Z,16.58
2022-10-21T20:32:08.401Z,13.77
2022-10-21T20:37:09.204Z,15.70
2022-10-21T20:42:09.975Z,11.93
2022-10-21T20:47:10.735Z,13.05
2022-10-21T20:52:11.487Z,16.35
2022-10-21T20:57:12.308Z,15.13
2022-10-21T21:02:13.228Z,9.95
2022-10-21T21:07:14.027Z,11.48
2022-10-21T21:12:14.942Z,10.35
2022-10-21T21:17:15.694Z,28.50
2022-10-21T21:22:16.662Z,11.45
2022-10-21T21:27:18.109Z,11.25
2022-10-21T21:32:19.042Z,13.68
2022-10-21T21:37:21.404Z,17.27
2022-10-21T21:42:22.148Z,18.65
2022-10-21T21:47:22.912Z,15.68
2022-10-21T21:52:25.082Z,12.85
2022-10-21T21:57:28.048Z,15.60
2022-10-21T22:02:29.534Z,25.70
2022-10-21T22:07:32.189Z,25.42
2022-10-21T22:12:32.954Z,16.70
2022-10-21T22:17:33.789Z,19.35
2022-10-21T22:22:35.289Z,25.98
2022-10-21T22:27:37.428Z,29.98
2022-10-21T22:32:38.831Z,29.80
2022-10-21T22:37:39.816Z,31.92
2022-10-21T22:42:40.868Z,26.40
2022-10-21T22:47:42.071Z,40.45
2022-10-21T22:52:43.439Z,131.98
2022-10-21T22:57:44.553Z,119.68
2022-10-21T23:02:45.357Z,31.17
2022-10-21T23:07:46.431Z,276.52
2022-10-21T23:12:47.747Z,74.43
2022-10-21T23:17:48.514Z,24.40
2022-10-21T23:22:49.462Z,24.35
2022-10-21T23:27:50.527Z,31.67
2022-10-21T23:32:51.482Z,42.45
2022-10-21T23:37:52.231Z,33.60
2022-10-21T23:42:53.386Z,39.15
2022-10-21T23:47:54.180Z,40.42
2022-10-21T23:52:55.502Z,65.70
2022-10-21T23:57:56.790Z,172.55
